Time,TemperatureF,DewpointF,PressureIn,WindDirection,WindDirectionDegrees,WindSpeedMPH,WindSpeedGustMPH,Humidity,HourlyPrecipIn,Conditions,Clouds,dailyrainin,SolarRadiationWatts/m^2,SoftwareType,DateUTC
2013-07-02 00:01:00,67.0,59.0,-100.00,ENE,74,5.0,12.0,75,0.00,,,0.03,39.000000,,2013-07-02 00:01:00,
2013-07-02 00:11:00,64.0,62.0,-100.00,NW,310,0.0,6.0,93,0.00,,,0.03,61.000000,,2013-07-02 00:11:00,
2013-07-02 00:43:00,64.0,62.0,-100.00,NW,310,0.0,6.0,93,0.00,,,0.03,61.000000,,2013-07-02 00:43:00,
2013-07-02 00:53:00,64.0,62.0,-100.00,NW,310,0.0,6.0,93,0.00,,,0.03,61.000000,,2013-07-02 00:53:00,
2013-07-02 01:01:00,64.0,62.0,-100.00,NW,310,0.0,6.0,93,0.00,,,0.03,61.000000,,2013-07-02 01:01:00,
2013-07-02 01:11:00,64.0,63.0,-100.00,NNE,23,0.0,0.0,97,0.00,,,0.03,18.000000,,2013-07-02 01:11:00,
2013-07-02 01:43:00,64.0,63.0,-100.00,NNE,23,0.0,0.0,97,0.00,,,0.03,18.000000,,2013-07-02 01:43:00,
2013-07-02 01:53:00,64.0,63.0,-100.00,NNE,23,0.0,0.0,97,0.00,,,0.03,18.000000,,2013-07-02 01:53:00,
2013-07-02 02:02:00,64.0,63.0,-100.00,NNE,23,0.0,0.0,97,0.00,,,0.03,18.000000,,2013-07-02 02:02:00,
2013-07-02 02:11:00,63.0,62.0,-100.00,WNW,282,1.0,4.0,98,0.00,,,0.03,0.000000,,2013-07-02 02:11:00,
2013-07-02 02:43:00,63.0,62.0,-100.00,WNW,282,1.0,4.0,98,0.00,,,0.03,0.000000,,2013-07-02 02:43:00,
2013-07-02 02:53:00,63.0,62.0,-100.00,WNW,282,1.0,4.0,98,0.00,,,0.03,0.000000,,2013-07-02 02:53:00,
2013-07-02 03:02:00,63.0,62.0,-100.00,WNW,282,1.0,4.0,98,0.00,,,0.03,0.000000,,2013-07-02 03:02:00,
2013-07-02 03:11:00,62.0,61.0,-100.00,SW,227,1.0,5.0,97,0.00,,,0.02,0.000000,,2013-07-02 03:11:00,
2013-07-02 03:53:00,62.0,61.0,-100.00,SW,227,1.0,5.0,97,0.00,,,0.02,0.000000,,2013-07-02 03:53:00,
2013-07-02 04:02:00,62.0,61.0,-100.00,SW,227,1.0,5.0,97,0.00,,,0.02,0.000000,,2013-07-02 04:02:00,
2013-07-02 04:11:00,61.0,60.0,-100.00,East,84,0.0,2.0,98,0.00,,,0.02,0.000000,,2013-07-02 04:11:00,
2013-07-02 04:42:00,61.0,60.0,-100.00,East,84,0.0,2.0,98,0.00,,,0.02,0.000000,,2013-07-02 04:42:00,
2013-07-02 04:54:00,61.0,60.0,-100.00,East,84,0.0,2.0,98,0.00,,,0.02,0.000000,,2013-07-02 04:54:00,
2013-07-02 05:02:00,61.0,60.0,-100.00,East,84,0.0,2.0,98,0.00,,,0.02,0.000000,,2013-07-02 05:02:00,
2013-07-02 05:11:00,61.0,60.0,-100.00,SSW,193,1.0,2.0,98,0.01,,,0.03,0.000000,,2013-07-02 05:11:00,
2013-07-02 05:43:00,61.0,60.0,-100.00,SSW,193,1.0,2.0,98,0.01,,,0.03,0.000000,,2013-07-02 05:43:00,
2013-07-02 05:53:00,61.0,60.0,-100.00,SSW,193,1.0,2.0,98,0.01,,,0.03,0.000000,,2013-07-02 05:53:00,
2013-07-02 06:01:00,61.0,60.0,-100.00,SSW,193,1.0,2.0,98,0.01,,,0.03,0.000000,,2013-07-02 06:01:00,
2013-07-02 06:11:00,61.0,60.0,-100.00,ESE,114,0.0,1.0,98,0.00,,,0.03,0.000000,,2013-07-02 06:11:00,
2013-07-02 06:43:00,61.0,60.0,-100.00,ESE,114,0.0,1.0,98,0.00,,,0.03,0.000000,,2013-07-02 06:43:00,
2013-07-02 06:53:00,61.0,60.0,-100.00,ESE,114,0.0,1.0,98,0.00,,,0.03,0.000000,,2013-07-02 06:53:00,
2013-07-02 07:01:00,61.0,60.0,-100.00,ESE,114,0.0,1.0,98,0.00,,,0.03,0.000000,,2013-07-02 07:01:00,
2013-07-02 07:11:00,63.0,63.0,-100.00,WNW,284,2.0,7.0,99,0.00,,,0.03,0.000000,,2013-07-02 07:11:00,
2013-07-02 07:44:00,63.0,63.0,-100.00,WNW,284,2.0,7.0,99,0.00,,,0.03,0.000000,,2013-07-02 07:44:00,
2013-07-02 07:53:00,63.0,63.0,-100.00,WNW,284,2.0,7.0,99,0.00,,,0.03,0.000000,,2013-07-02 07:53:00,
2013-07-02 08:02:00,63.0,63.0,-100.00,WNW,284,2.0,7.0,99,0.00,,,0.03,0.000000,,2013-07-02 08:02:00,
2013-07-02 08:11:00,63.0,62.0,-100.00,NNE,33,2.0,5.0,95,0.00,,,0.03,0.000000,,2013-07-02 08:11:00,
2013-07-02 08:44:00,63.0,62.0,-100.00,NNE,33,2.0,5.0,95,0.00,,,0.03,0.000000,,2013-07-02 08:44:00,
2013-07-02 08:53:00,63.0,62.0,-100.00,NNE,33,2.0,5.0,95,0.00,,,0.03,0.000000,,2013-07-02 08:53:00,
2013-07-02 09:02:00,63.0,62.0,-100.00,NNE,33,2.0,5.0,95,0.00,,,0.03,0.000000,,2013-07-02 09:02:00,
2013-07-02 09:11:00,62.0,60.0,-100.00,SW,219,1.0,5.0,94,0.00,,,0.03,0.000000,,2013-07-02 09:11:00,
2013-07-02 09:43:00,62.0,60.0,-100.00,SW,219,1.0,5.0,94,0.00,,,0.03,0.000000,,2013-07-02 09:43:00,
2013-07-02 09:52:00,62.0,60.0,-100.00,SW,219,1.0,5.0,94,0.00,,,0.03,0.000000,,2013-07-02 09:52:00,
2013-07-02 10:01:00,62.0,60.0,-100.00,SW,219,1.0,5.0,94,0.00,,,0.03,0.000000,,2013-07-02 10:01:00,
2013-07-02 10:11:00,64.0,63.0,-100.00,NNW,330,2.0,5.0,96,0.00,,,0.03,0.000000,,2013-07-02 10:11:00,
2013-07-02 10:52:00,64.0,63.0,-100.00,NNW,330,2.0,5.0,96,0.00,,,0.03,0.000000,,2013-07-02 10:52:00,
2013-07-02 11:01:00,64.0,63.0,-100.00,NNW,330,2.0,5.0,96,0.00,,,0.03,0.000000,,2013-07-02 11:01:00,
2013-07-02 11:11:00,63.0,61.0,-100.00,West,272,3.0,8.0,92,0.00,,,0.03,5.000000,,2013-07-02 11:11:00,
2013-07-02 11:42:00,63.0,61.0,-100.00,West,272,3.0,8.0,92,0.00,,,0.03,5.000000,,2013-07-02 11:42:00,
2013-07-02 11:52:00,63.0,61.0,-100.00,West,272,3.0,8.0,92,0.00,,,0.03,5.000000,,2013-07-02 11:52:00,
2013-07-02 12:01:00,63.0,61.0,-100.00,West,272,3.0,8.0,92,0.00,,,0.03,5.000000,,2013-07-02 12:01:00,
2013-07-02 12:11:00,64.0,62.0,-100.00,WNW,282,2.0,7.0,94,0.00,,,0.03,46.000000,,2013-07-02 12:11:00,
2013-07-02 12:43:00,64.0,62.0,-100.00,WNW,282,2.0,7.0,94,0.00,,,0.03,46.000000,,2013-07-02 12:43:00,
2013-07-02 12:52:00,64.0,62.0,-100.00,WNW,282,2.0,7.0,94,0.00,,,0.03,46.000000,,2013-07-02 12:52:00,
2013-07-02 13:01:00,64.0,62.0,-100.00,WNW,282,2.0,7.0,94,0.00,,,0.03,46.000000,,2013-07-02 13:01:00,
2013-07-02 13:11:00,68.0,65.0,-100.00,West,273,3.0,7.0,91,0.00,,,0.02,214.000000,,2013-07-02 13:11:00,
2013-07-02 13:43:00,68.0,65.0,-100.00,West,273,3.0,7.0,91,0.00,,,0.02,214.000000,,2013-07-02 13:43:00,
2013-07-02 13:52:00,68.0,65.0,-100.00,West,273,3.0,7.0,91,0.00,,,0.02,214.000000,,2013-07-02 13:52:00,
2013-07-02 14:02:00,68.0,65.0,-100.00,West,273,3.0,7.0,91,0.00,,,0.02,214.000000,,2013-07-02 14:02:00,
2013-07-02 14:11:00,71.0,65.0,-100.00,WNW,288,4.0,10.0,81,0.00,,,0.02,493.000000,,2013-07-02 14:11:00,
2013-07-02 14:43:00,71.0,65.0,-100.00,WNW,288,4.0,10.0,81,0.00,,,0.02,493.000000,,2013-07-02 14:43:00,
2013-07-02 14:53:00,71.0,65.0,-100.00,WNW,288,4.0,10.0,81,0.00,,,0.02,493.000000,,2013-07-02 14:53:00,
2013-07-02 15:02:00,71.0,65.0,-100.00,WNW,288,4.0,10.0,81,0.00,,,0.02,493.000000,,2013-07-02 15:02:00,
2013-07-02 15:11:00,74.0,64.0,-100.00,NW,304,5.0,11.0,70,0.00,,,0.02,860.000000,,2013-07-02 15:11:00,
2013-07-02 15:44:00,74.0,64.0,-100.00,NW,304,5.0,11.0,70,0.00,,,0.02,860.000000,,2013-07-02 15:44:00,
2013-07-02 15:53:00,74.0,64.0,-100.00,NW,304,5.0,11.0,70,0.00,,,0.02,860.000000,,2013-07-02 15:53:00,
2013-07-02 16:01:00,74.0,64.0,-100.00,NW,304,5.0,11.0,70,0.00,,,0.02,860.000000,,2013-07-02 16:01:00,
2013-07-02 16:11:00,76.0,65.0,-100.00,West,274,6.0,12.0,69,0.00,,,0.02,853.000000,,2013-07-02 16:11:00,
2013-07-02 16:43:00,76.0,65.0,-100.00,West,274,6.0,12.0,69,0.00,,,0.02,853.000000,,2013-07-02 16:43:00,
2013-07-02 16:52:00,76.0,65.0,-100.00,West,274,6.0,12.0,69,0.00,,,0.02,853.000000,,2013-07-02 16:52:00,
2013-07-02 17:02:00,76.0,65.0,-100.00,West,274,6.0,12.0,69,0.00,,,0.02,853.000000,,2013-07-02 17:02:00,
2013-07-02 17:11:00,77.0,63.0,-100.00,WNW,288,4.0,9.0,63,0.00,,,0.02,791.000000,,2013-07-02 17:11:00,
2013-07-02 17:53:00,77.0,63.0,-100.00,WNW,288,4.0,9.0,63,0.00,,,0.02,791.000000,,2013-07-02 17:53:00,
2013-07-02 18:02:00,77.0,63.0,-100.00,WNW,288,4.0,9.0,63,0.00,,,0.02,791.000000,,2013-07-02 18:02:00,
2013-07-02 18:11:00,79.0,64.0,-100.00,WNW,282,5.0,10.0,61,0.01,,,0.03,931.000000,,2013-07-02 18:11:00,
2013-07-02 18:43:00,79.0,64.0,-100.00,WNW,282,5.0,10.0,61,0.01,,,0.03,931.000000,,2013-07-02 18:43:00,
2013-07-02 18:53:00,79.0,64.0,-100.00,WNW,282,5.0,10.0,61,0.01,,,0.03,931.000000,,2013-07-02 18:53:00,
2013-07-02 19:01:00,79.0,64.0,-100.00,WNW,282,5.0,10.0,61,0.01,,,0.03,931.000000,,2013-07-02 19:01:00,
2013-07-02 19:11:00,80.0,63.0,-100.00,WNW,282,5.0,11.0,56,0.00,,,0.02,1059.000000,,2013-07-02 19:11:00,
2013-07-02 19:43:00,80.0,63.0,-100.00,WNW,282,5.0,11.0,56,0.00,,,0.02,1059.000000,,2013-07-02 19:43:00,
2013-07-02 19:53:00,80.0,63.0,-100.00,WNW,282,5.0,11.0,56,0.00,,,0.02,1059.000000,,2013-07-02 19:53:00,
2013-07-02 20:02:00,80.0,63.0,-100.00,WNW,282,5.0,11.0,56,0.00,,,0.02,1059.000000,,2013-07-02 20:02:00,
2013-07-02 20:11:00,82.0,62.0,-100.00,North,1,4.0,9.0,51,0.00,,,0.02,1062.000000,,2013-07-02 20:11:00,
2013-07-02 20:43:00,82.0,62.0,-100.00,North,1,4.0,9.0,51,0.00,,,0.02,1062.000000,,2013-07-02 20:43:00,
2013-07-02 20:52:00,82.0,62.0,-100.00,North,1,4.0,9.0,51,0.00,,,0.02,1062.000000,,2013-07-02 20:52:00,
2013-07-02 21:02:00,82.0,62.0,-100.00,North,1,4.0,9.0,51,0.00,,,0.02,1062.000000,,2013-07-02 21:02:00,
2013-07-02 21:11:00,79.0,62.0,-100.00,NW,306,3.0,10.0,56,0.00,,,0.02,668.000000,,2013-07-02 21:11:00,
2013-07-02 21:44:00,79.0,62.0,-100.00,NW,306,3.0,10.0,56,0.00,,,0.02,668.000000,,2013-07-02 21:44:00,
2013-07-02 21:52:00,79.0,62.0,-100.00,NW,306,3.0,10.0,56,0.00,,,0.02,668.000000,,2013-07-02 21:52:00,
2013-07-02 22:01:00,79.0,62.0,-100.00,NW,306,3.0,10.0,56,0.00,,,0.02,668.000000,,2013-07-02 22:01:00,
2013-07-02 22:11:00,78.0,62.0,-100.00,ENE,59,2.0,7.0,57,0.00,,,0.02,343.000000,,2013-07-02 22:11:00,
2013-07-02 22:43:00,78.0,62.0,-100.00,ENE,59,2.0,7.0,57,0.00,,,0.02,343.000000,,2013-07-02 22:43:00,
2013-07-02 22:53:00,78.0,62.0,-100.00,ENE,59,2.0,7.0,57,0.00,,,0.02,343.000000,,2013-07-02 22:53:00,
2013-07-02 23:01:00,78.0,62.0,-100.00,ENE,59,2.0,7.0,57,0.00,,,0.02,343.000000,,2013-07-02 23:01:00,
2013-07-02 23:11:00,67.0,61.0,-100.00,East,85,2.0,10.0,81,0.00,,,0.02,80.000000,,2013-07-02 23:11:00,
2013-07-02 23:44:00,67.0,61.0,-100.00,East,85,2.0,10.0,81,0.00,,,0.02,80.000000,,2013-07-02 23:44:00,
2013-07-02 23:52:00,67.0,61.0,-100.00,East,85,2.0,10.0,81,0.00,,,0.02,80.000000,,2013-07-02 23:52:00,